<?xml version="1.0" encoding="UTF-8" standalone="no" ?>
<gpx xmlns="http://www.topografix.com/GPX/1/1" xmlns:xsi="http://www.w3.org/2001/XMLSchema-instance" xsi:schemaLocation="http://www.topografix.com/GPX/1/1 http://www.topografix.com/GPX/1/1/gpx.xsd" version="1.1" creator="VisuGPX - https://www.visugpx.com">
  <metadata>
    <name>2023-06-15-46-le Vigan</name>
    <desc><![CDATA[Randonnée de 12 km pour environ 150 m de dénivelé positif. Un circuit au départ du lac, principalement en foret sur des beaux sentiers, un peu de hors piste pour éviter les routes trop fréquentées et un retour par le GR 64]]></desc>
  </metadata>
  <trk>
    <name><![CDATA[LE VIGAN09 12:06:08-16953539]]></name>
    <extensions>
      <line xmlns="http://www.topografix.com/GPX/gpx_style/0/2">
        <color>0000FF</color>
        <width>4</width>
      </line>
    </extensions>
    <trkseg>
      <trkpt lat="44.74275" lon="1.4467">
        <ele>229.9</ele>
        <time>2023-06-10T12:29:59Z</time>
      </trkpt>
      <trkpt lat="44.74269" lon="1.44637">
        <ele>229.4</ele>
      </trkpt>
      <trkpt lat="44.74242" lon="1.44644">
        <ele>227.9</ele>
      </trkpt>
      <trkpt lat="44.74196" lon="1.44661">
        <ele>227.8</ele>
      </trkpt>
      <trkpt lat="44.74146" lon="1.44664">
        <ele>229.3</ele>
      </trkpt>
      <trkpt lat="44.74128" lon="1.44592">
        <ele>229.8</ele>
      </trkpt>
      <trkpt lat="44.74122" lon="1.44473">
        <ele>228.8</ele>
      </trkpt>
      <trkpt lat="44.74133" lon="1.44351">
        <ele>228.6</ele>
      </trkpt>
      <trkpt lat="44.74145" lon="1.44249">
        <ele>228.8</ele>
      </trkpt>
      <trkpt lat="44.74136" lon="1.44243">
        <ele>230.6</ele>
      </trkpt>
      <trkpt lat="44.74145" lon="1.44153">
        <ele>230.5</ele>
      </trkpt>
      <trkpt lat="44.74147" lon="1.44061">
        <ele>230.8</ele>
      </trkpt>
      <trkpt lat="44.7414" lon="1.43998">
        <ele>230.8</ele>
      </trkpt>
      <trkpt lat="44.7411" lon="1.43994">
        <ele>235.6</ele>
      </trkpt>
      <trkpt lat="44.74054" lon="1.43885">
        <ele>227.9</ele>
      </trkpt>
      <trkpt lat="44.74102" lon="1.43852">
        <ele>226.2</ele>
      </trkpt>
      <trkpt lat="44.74144" lon="1.43855">
        <ele>225.5</ele>
      </trkpt>
      <trkpt lat="44.74172" lon="1.43867">
        <ele>223.8</ele>
      </trkpt>
      <trkpt lat="44.74232" lon="1.43881">
        <ele>222.5</ele>
      </trkpt>
      <trkpt lat="44.74239" lon="1.43946">
        <ele>222.1</ele>
      </trkpt>
      <trkpt lat="44.74262" lon="1.44005">
        <ele>223.1</ele>
      </trkpt>
      <trkpt lat="44.74244" lon="1.44081">
        <ele>224.9</ele>
      </trkpt>
      <trkpt lat="44.74255" lon="1.44243">
        <ele>228.1</ele>
      </trkpt>
      <trkpt lat="44.74277" lon="1.44278">
        <ele>229</ele>
      </trkpt>
      <trkpt lat="44.74283" lon="1.44291">
        <ele>229.8</ele>
        <time>2023-06-10T12:30:21Z</time>
      </trkpt>
      <trkpt lat="44.74342" lon="1.44336">
        <ele>238</ele>
        <time>2023-06-10T12:31:55Z</time>
      </trkpt>
      <trkpt lat="44.74431" lon="1.44441">
        <ele>254</ele>
        <time>2023-06-10T12:34:30Z</time>
      </trkpt>
      <trkpt lat="44.74467" lon="1.44475">
        <ele>258</ele>
        <time>2023-06-10T12:35:32Z</time>
      </trkpt>
      <trkpt lat="44.74467" lon="1.44473">
        <ele>257</ele>
        <time>2023-06-10T12:35:33Z</time>
      </trkpt>
      <trkpt lat="44.74517" lon="1.44435">
        <ele>259</ele>
        <time>2023-06-10T12:36:52Z</time>
      </trkpt>
      <trkpt lat="44.74581" lon="1.44386">
        <ele>252.2</ele>
        <time>2023-06-10T12:38:41Z</time>
      </trkpt>
      <trkpt lat="44.74645" lon="1.44318">
        <ele>251</ele>
        <time>2023-06-10T12:40:27Z</time>
      </trkpt>
      <trkpt lat="44.74729" lon="1.4424">
        <ele>255</ele>
        <time>2023-06-10T12:42:44Z</time>
      </trkpt>
      <trkpt lat="44.74819" lon="1.44166">
        <ele>261</ele>
        <time>2023-06-10T12:45:03Z</time>
      </trkpt>
      <trkpt lat="44.74873" lon="1.44129">
        <ele>267</ele>
        <time>2023-06-10T12:46:23Z</time>
      </trkpt>
      <trkpt lat="44.7493" lon="1.44087">
        <ele>272</ele>
        <time>2023-06-10T12:47:50Z</time>
      </trkpt>
      <trkpt lat="44.74982" lon="1.44048">
        <ele>270.4</ele>
        <time>2023-06-10T12:49:55Z</time>
      </trkpt>
      <trkpt lat="44.75076" lon="1.43937">
        <ele>277</ele>
        <time>2023-06-10T12:51:53Z</time>
      </trkpt>
      <trkpt lat="44.75191" lon="1.43967">
        <ele>287</ele>
        <time>2023-06-10T12:54:30Z</time>
      </trkpt>
      <trkpt lat="44.75248" lon="1.43982">
        <ele>286</ele>
        <time>2023-06-10T12:55:51Z</time>
      </trkpt>
      <trkpt lat="44.75248" lon="1.43982">
        <ele>286</ele>
        <time>2023-06-10T12:55:57Z</time>
      </trkpt>
      <trkpt lat="44.7525" lon="1.43987">
        <ele>286</ele>
        <time>2023-06-10T12:56:02Z</time>
      </trkpt>
      <trkpt lat="44.75249" lon="1.43988">
        <ele>286</ele>
        <time>2023-06-10T12:56:04Z</time>
      </trkpt>
      <trkpt lat="44.75286" lon="1.44103">
        <ele>289</ele>
        <time>2023-06-10T12:58:05Z</time>
      </trkpt>
      <trkpt lat="44.75285" lon="1.44234">
        <ele>293</ele>
        <time>2023-06-10T13:00:10Z</time>
      </trkpt>
      <trkpt lat="44.75288" lon="1.4441">
        <ele>295</ele>
        <time>2023-06-10T13:02:57Z</time>
      </trkpt>
      <trkpt lat="44.75285" lon="1.44466">
        <ele>296</ele>
        <time>2023-06-10T13:03:50Z</time>
      </trkpt>
      <trkpt lat="44.75286" lon="1.44536">
        <ele>298</ele>
        <time>2023-06-10T13:04:57Z</time>
      </trkpt>
      <trkpt lat="44.75294" lon="1.44712">
        <ele>306</ele>
        <time>2023-06-10T13:07:44Z</time>
      </trkpt>
      <trkpt lat="44.75303" lon="1.44796">
        <ele>310</ele>
        <time>2023-06-10T13:09:04Z</time>
      </trkpt>
      <trkpt lat="44.75313" lon="1.44961">
        <ele>314</ele>
        <time>2023-06-10T13:11:41Z</time>
      </trkpt>
      <trkpt lat="44.75355" lon="1.4517">
        <ele>320</ele>
        <time>2023-06-10T13:15:07Z</time>
      </trkpt>
      <trkpt lat="44.75384" lon="1.45273">
        <ele>323</ele>
        <time>2023-06-10T13:16:53Z</time>
      </trkpt>
      <trkpt lat="44.75405" lon="1.45334">
        <ele>326</ele>
        <time>2023-06-10T13:17:57Z</time>
      </trkpt>
      <trkpt lat="44.75427" lon="1.45364">
        <ele>326</ele>
        <time>2023-06-10T13:18:38Z</time>
      </trkpt>
      <trkpt lat="44.75474" lon="1.45401">
        <ele>328</ele>
        <time>2023-06-10T13:19:50Z</time>
      </trkpt>
      <trkpt lat="44.75527" lon="1.45438">
        <ele>326</ele>
        <time>2023-06-10T13:21:09Z</time>
      </trkpt>
      <trkpt lat="44.75581" lon="1.45487">
        <ele>327</ele>
        <time>2023-06-10T13:22:35Z</time>
      </trkpt>
      <trkpt lat="44.75618" lon="1.45535">
        <ele>327</ele>
        <time>2023-06-10T13:23:43Z</time>
      </trkpt>
      <trkpt lat="44.7565" lon="1.45575">
        <ele>329</ele>
        <time>2023-06-10T13:24:40Z</time>
      </trkpt>
      <trkpt lat="44.757" lon="1.45635">
        <ele>330</ele>
        <time>2023-06-10T13:26:08Z</time>
      </trkpt>
      <trkpt lat="44.75744" lon="1.45687">
        <ele>334</ele>
        <time>2023-06-10T13:27:25Z</time>
      </trkpt>
      <trkpt lat="44.75842" lon="1.45821">
        <ele>335</ele>
        <time>2023-06-10T13:30:28Z</time>
      </trkpt>
      <trkpt lat="44.75876" lon="1.45884">
        <ele>329</ele>
        <time>2023-06-10T13:31:43Z</time>
      </trkpt>
      <trkpt lat="44.75871" lon="1.45933">
        <ele>325</ele>
        <time>2023-06-10T13:32:30Z</time>
      </trkpt>
      <trkpt lat="44.75918" lon="1.45941">
        <ele>324</ele>
        <time>2023-06-10T13:33:53Z</time>
      </trkpt>
      <trkpt lat="44.75961" lon="1.45972">
        <ele>325</ele>
        <time>2023-06-10T13:34:58Z</time>
      </trkpt>
      <trkpt lat="44.76018" lon="1.46021">
        <ele>329</ele>
        <time>2023-06-10T13:36:27Z</time>
      </trkpt>
      <trkpt lat="44.76131" lon="1.46121">
        <ele>334</ele>
        <time>2023-06-10T13:40:03Z</time>
      </trkpt>
      <trkpt lat="44.76205" lon="1.46185">
        <ele>337</ele>
        <time>2023-06-10T13:50:08Z</time>
      </trkpt>
      <trkpt lat="44.76245" lon="1.46235">
        <ele>340</ele>
        <time>2023-06-10T13:51:20Z</time>
      </trkpt>
      <trkpt lat="44.76262" lon="1.46286">
        <ele>342</ele>
        <time>2023-06-10T13:52:14Z</time>
      </trkpt>
      <trkpt lat="44.76289" lon="1.46483">
        <ele>343</ele>
        <time>2023-06-10T13:55:24Z</time>
      </trkpt>
      <trkpt lat="44.76318" lon="1.4665">
        <ele>342</ele>
        <time>2023-06-10T13:58:13Z</time>
      </trkpt>
      <trkpt lat="44.76334" lon="1.46738">
        <ele>340</ele>
        <time>2023-06-10T13:59:41Z</time>
      </trkpt>
      <trkpt lat="44.76323" lon="1.46775">
        <ele>341</ele>
        <time>2023-06-10T14:00:20Z</time>
      </trkpt>
      <trkpt lat="44.76325" lon="1.46897">
        <ele>348</ele>
        <time>2023-06-10T14:02:58Z</time>
      </trkpt>
      <trkpt lat="44.76325" lon="1.46897">
        <ele>348</ele>
        <time>2023-06-10T14:03:13Z</time>
      </trkpt>
      <trkpt lat="44.76325" lon="1.46901">
        <ele>348</ele>
        <time>2023-06-10T14:03:23Z</time>
      </trkpt>
      <trkpt lat="44.76325" lon="1.46899">
        <ele>348</ele>
        <time>2023-06-10T14:03:29Z</time>
      </trkpt>
      <trkpt lat="44.76322" lon="1.46946">
        <ele>352</ele>
        <time>2023-06-10T14:04:16Z</time>
      </trkpt>
      <trkpt lat="44.76274" lon="1.47012">
        <ele>354</ele>
        <time>2023-06-10T14:05:47Z</time>
      </trkpt>
      <trkpt lat="44.7625" lon="1.47058">
        <ele>355</ele>
        <time>2023-06-10T14:06:41Z</time>
      </trkpt>
      <trkpt lat="44.7623" lon="1.47192">
        <ele>357</ele>
        <time>2023-06-10T14:08:51Z</time>
      </trkpt>
      <trkpt lat="44.76236" lon="1.47241">
        <ele>356</ele>
        <time>2023-06-10T14:09:39Z</time>
      </trkpt>
      <trkpt lat="44.76266" lon="1.47298">
        <ele>355</ele>
        <time>2023-06-10T14:10:46Z</time>
      </trkpt>
      <trkpt lat="44.76317" lon="1.47352">
        <ele>354</ele>
        <time>2023-06-10T14:12:12Z</time>
      </trkpt>
      <trkpt lat="44.76368" lon="1.47431">
        <ele>349</ele>
        <time>2023-06-10T14:13:54Z</time>
      </trkpt>
      <trkpt lat="44.76387" lon="1.47516">
        <ele>347</ele>
        <time>2023-06-10T14:15:19Z</time>
      </trkpt>
      <trkpt lat="44.76385" lon="1.47662">
        <ele>348.2</ele>
        <time>2023-06-10T14:16:53Z</time>
      </trkpt>
      <trkpt lat="44.76402" lon="1.47702">
        <ele>350.3</ele>
        <time>2023-06-10T14:18:15Z</time>
      </trkpt>
      <trkpt lat="44.76483" lon="1.47804">
        <ele>359</ele>
        <time>2023-06-10T14:20:40Z</time>
      </trkpt>
      <trkpt lat="44.76506" lon="1.47875">
        <ele>355.8</ele>
        <time>2023-06-10T14:22:28Z</time>
      </trkpt>
      <trkpt lat="44.765" lon="1.47981">
        <ele>361.9</ele>
      </trkpt>
      <trkpt lat="44.7647" lon="1.48074">
        <ele>370</ele>
        <time>2023-06-10T14:25:07Z</time>
      </trkpt>
      <trkpt lat="44.76434" lon="1.4812">
        <ele>370</ele>
        <time>2023-06-10T14:26:13Z</time>
      </trkpt>
      <trkpt lat="44.76399" lon="1.48162">
        <ele>371</ele>
        <time>2023-06-10T14:27:14Z</time>
      </trkpt>
      <trkpt lat="44.76337" lon="1.48168">
        <ele>369.2</ele>
        <time>2023-06-10T14:28:34Z</time>
      </trkpt>
      <trkpt lat="44.76285" lon="1.48221">
        <ele>376</ele>
        <time>2023-06-10T14:30:00Z</time>
      </trkpt>
      <trkpt lat="44.76231" lon="1.48239">
        <ele>373</ele>
        <time>2023-06-10T14:31:14Z</time>
      </trkpt>
      <trkpt lat="44.76193" lon="1.48261">
        <ele>372</ele>
        <time>2023-06-10T14:32:09Z</time>
      </trkpt>
      <trkpt lat="44.76053" lon="1.48263">
        <ele>370</ele>
        <time>2023-06-10T14:35:18Z</time>
      </trkpt>
      <trkpt lat="44.75973" lon="1.48251">
        <ele>370</ele>
        <time>2023-06-10T14:37:05Z</time>
      </trkpt>
      <trkpt lat="44.75894" lon="1.48209">
        <ele>368</ele>
        <time>2023-06-10T14:38:58Z</time>
      </trkpt>
      <trkpt lat="44.75854" lon="1.4818">
        <ele>365</ele>
        <time>2023-06-10T14:39:59Z</time>
      </trkpt>
      <trkpt lat="44.7583" lon="1.48083">
        <ele>359</ele>
        <time>2023-06-10T14:41:37Z</time>
      </trkpt>
      <trkpt lat="44.75809" lon="1.48031">
        <ele>359</ele>
        <time>2023-06-10T14:42:34Z</time>
      </trkpt>
      <trkpt lat="44.75734" lon="1.48005">
        <ele>364</ele>
        <time>2023-06-10T14:44:17Z</time>
      </trkpt>
      <trkpt lat="44.75675" lon="1.47964">
        <ele>363</ele>
        <time>2023-06-10T14:45:46Z</time>
      </trkpt>
      <trkpt lat="44.75622" lon="1.47948">
        <ele>362</ele>
        <time>2023-06-10T14:47:01Z</time>
      </trkpt>
      <trkpt lat="44.75567" lon="1.4798">
        <ele>361</ele>
        <time>2023-06-10T14:48:21Z</time>
      </trkpt>
      <trkpt lat="44.75521" lon="1.48008">
        <ele>359.9</ele>
        <time>2023-06-10T14:49:42Z</time>
      </trkpt>
      <trkpt lat="44.75532" lon="1.47941">
        <ele>357.5</ele>
      </trkpt>
      <trkpt lat="44.75565" lon="1.47905">
        <ele>358.7</ele>
        <time>2023-06-10T14:54:03Z</time>
      </trkpt>
      <trkpt lat="44.75599" lon="1.47851">
        <ele>357</ele>
        <time>2023-06-10T14:55:16Z</time>
      </trkpt>
      <trkpt lat="44.7563" lon="1.47816">
        <ele>357</ele>
        <time>2023-06-10T14:56:04Z</time>
      </trkpt>
      <trkpt lat="44.75667" lon="1.47801">
        <ele>353.4</ele>
      </trkpt>
      <trkpt lat="44.75705" lon="1.47718">
        <ele>351.4</ele>
        <time>2023-06-10T14:58:32Z</time>
      </trkpt>
      <trkpt lat="44.75731" lon="1.47655">
        <ele>349.1</ele>
        <time>2023-06-10T15:00:04Z</time>
      </trkpt>
      <trkpt lat="44.75711" lon="1.47607">
        <ele>345.7</ele>
      </trkpt>
      <trkpt lat="44.75709" lon="1.47589">
        <ele>344.4</ele>
      </trkpt>
      <trkpt lat="44.75732" lon="1.47563">
        <ele>341.3</ele>
      </trkpt>
      <trkpt lat="44.75735" lon="1.4745">
        <ele>334</ele>
        <time>2023-06-10T15:03:03Z</time>
      </trkpt>
      <trkpt lat="44.75715" lon="1.47399">
        <ele>330</ele>
        <time>2023-06-10T15:03:44Z</time>
      </trkpt>
      <trkpt lat="44.75687" lon="1.47352">
        <ele>325.6</ele>
        <time>2023-06-10T15:04:57Z</time>
      </trkpt>
      <trkpt lat="44.75633" lon="1.47272">
        <ele>319</ele>
        <time>2023-06-10T15:06:44Z</time>
      </trkpt>
      <trkpt lat="44.7555" lon="1.47146">
        <ele>296.7</ele>
        <time>2023-06-10T15:09:27Z</time>
      </trkpt>
      <trkpt lat="44.7551" lon="1.471">
        <ele>292</ele>
        <time>2023-06-10T15:10:13Z</time>
      </trkpt>
      <trkpt lat="44.75491" lon="1.47129">
        <ele>293.1</ele>
        <time>2023-06-10T15:10:33Z</time>
      </trkpt>
      <trkpt lat="44.75475" lon="1.47155">
        <ele>293.5</ele>
      </trkpt>
      <trkpt lat="44.7547" lon="1.47186">
        <ele>302</ele>
        <time>2023-06-10T15:11:46Z</time>
      </trkpt>
      <trkpt lat="44.75404" lon="1.47188">
        <ele>302</ele>
        <time>2023-06-10T15:13:14Z</time>
      </trkpt>
      <trkpt lat="44.75373" lon="1.47206">
        <ele>305</ele>
        <time>2023-06-10T15:13:59Z</time>
      </trkpt>
      <trkpt lat="44.75303" lon="1.47219">
        <ele>309</ele>
        <time>2023-06-10T15:15:35Z</time>
      </trkpt>
      <trkpt lat="44.75275" lon="1.47093">
        <ele>308</ele>
        <time>2023-06-10T15:17:41Z</time>
      </trkpt>
      <trkpt lat="44.75225" lon="1.4707">
        <ele>307</ele>
        <time>2023-06-10T15:18:53Z</time>
      </trkpt>
      <trkpt lat="44.75181" lon="1.47012">
        <ele>308</ele>
        <time>2023-06-10T15:20:14Z</time>
      </trkpt>
      <trkpt lat="44.75161" lon="1.46996">
        <ele>308</ele>
        <time>2023-06-10T15:20:45Z</time>
      </trkpt>
      <trkpt lat="44.75212" lon="1.46912">
        <ele>299.4</ele>
        <time>2023-06-10T15:22:35Z</time>
      </trkpt>
      <trkpt lat="44.75223" lon="1.46885">
        <ele>296.7</ele>
        <time>2023-06-10T15:22:51Z</time>
      </trkpt>
      <trkpt lat="44.75219" lon="1.4679">
        <ele>293</ele>
        <time>2023-06-10T15:24:38Z</time>
      </trkpt>
      <trkpt lat="44.75205" lon="1.46659">
        <ele>281.7</ele>
        <time>2023-06-10T15:26:40Z</time>
      </trkpt>
      <trkpt lat="44.75213" lon="1.46537">
        <ele>272.6</ele>
        <time>2023-06-10T15:28:21Z</time>
      </trkpt>
      <trkpt lat="44.75225" lon="1.46515">
        <ele>269.6</ele>
        <time>2023-06-10T15:29:23Z</time>
      </trkpt>
      <trkpt lat="44.75201" lon="1.46489">
        <ele>268</ele>
        <time>2023-06-10T15:29:46Z</time>
      </trkpt>
      <trkpt lat="44.75178" lon="1.46457">
        <ele>264.7</ele>
        <time>2023-06-10T15:30:28Z</time>
      </trkpt>
      <trkpt lat="44.75149" lon="1.46407">
        <ele>271</ele>
        <time>2023-06-10T15:31:31Z</time>
      </trkpt>
      <trkpt lat="44.75103" lon="1.4635">
        <ele>270</ele>
        <time>2023-06-10T15:32:53Z</time>
      </trkpt>
      <trkpt lat="44.74992" lon="1.46255">
        <ele>267</ele>
        <time>2023-06-10T15:35:48Z</time>
      </trkpt>
      <trkpt lat="44.74917" lon="1.46248">
        <ele>266</ele>
        <time>2023-06-10T15:37:31Z</time>
      </trkpt>
      <trkpt lat="44.74878" lon="1.46177">
        <ele>267</ele>
        <time>2023-06-10T15:38:57Z</time>
      </trkpt>
      <trkpt lat="44.74859" lon="1.4614">
        <ele>267</ele>
        <time>2023-06-10T15:39:40Z</time>
      </trkpt>
      <trkpt lat="44.74775" lon="1.46101">
        <ele>265</ele>
        <time>2023-06-10T15:41:40Z</time>
      </trkpt>
      <trkpt lat="44.74714" lon="1.46076">
        <ele>261</ele>
        <time>2023-06-10T15:43:04Z</time>
      </trkpt>
      <trkpt lat="44.74646" lon="1.46007">
        <ele>261</ele>
        <time>2023-06-10T15:44:56Z</time>
      </trkpt>
      <trkpt lat="44.74584" lon="1.4599">
        <ele>257</ele>
        <time>2023-06-10T15:46:21Z</time>
      </trkpt>
      <trkpt lat="44.74524" lon="1.45953">
        <ele>244.5</ele>
        <time>2023-06-10T15:47:46Z</time>
      </trkpt>
      <trkpt lat="44.74502" lon="1.45919">
        <ele>242.5</ele>
        <time>2023-06-10T15:48:18Z</time>
      </trkpt>
      <trkpt lat="44.74462" lon="1.45771">
        <ele>250</ele>
        <time>2023-06-10T15:50:59Z</time>
      </trkpt>
      <trkpt lat="44.74444" lon="1.45687">
        <ele>239.5</ele>
        <time>2023-06-10T15:52:20Z</time>
      </trkpt>
      <trkpt lat="44.74444" lon="1.45544">
        <ele>238</ele>
        <time>2023-06-10T15:54:37Z</time>
      </trkpt>
      <trkpt lat="44.74438" lon="1.45394">
        <ele>239.6</ele>
        <time>2023-06-10T15:57:03Z</time>
      </trkpt>
      <trkpt lat="44.74408" lon="1.45223">
        <ele>240</ele>
        <time>2023-06-10T15:59:50Z</time>
      </trkpt>
      <trkpt lat="44.74384" lon="1.4507">
        <ele>241</ele>
        <time>2023-06-10T16:02:18Z</time>
      </trkpt>
      <trkpt lat="44.74366" lon="1.44997">
        <ele>241</ele>
        <time>2023-06-10T16:03:32Z</time>
      </trkpt>
      <trkpt lat="44.74348" lon="1.44919">
        <ele>238</ele>
        <time>2023-06-10T16:04:51Z</time>
      </trkpt>
      <trkpt lat="44.74342" lon="1.44839">
        <ele>237</ele>
        <time>2023-06-10T16:06:07Z</time>
      </trkpt>
      <trkpt lat="44.743" lon="1.44763">
        <ele>237</ele>
        <time>2023-06-10T16:07:38Z</time>
      </trkpt>
      <trkpt lat="44.74285" lon="1.44734">
        <ele>231.9</ele>
        <time>2023-06-10T16:08:08Z</time>
      </trkpt>
      <trkpt lat="44.74277" lon="1.44718">
        <ele>230.8</ele>
      </trkpt>
      <trkpt lat="44.74277" lon="1.447">
        <ele>230.1</ele>
        <time>2023-06-10T16:14:01Z</time>
      </trkpt>
    </trkseg>
  </trk>
</gpx>